createdAt,value
2023-01-11T00:00:07.073Z,1.46
2023-01-11T00:05:05.247Z,1.39
2023-01-11T00:10:04.420Z,0.64
2023-01-11T00:15:03.563Z,1.39
2023-01-11T00:20:02.726Z,0.58
2023-01-11T00:25:01.960Z,0.58
2023-01-11T00:30:02.100Z,-0.99
2023-01-11T00:35:00.267Z,0.46
2023-01-11T00:39:59.414Z,-0.25
2023-01-11T00:44:59.560Z,1.79
2023-01-11T00:49:59.909Z,-0.36
2023-01-11T00:54:57.085Z,1.58
2023-01-11T00:59:56.273Z,1.58
2023-01-11T01:04:56.451Z,0.74
2023-01-11T01:09:56.606Z,1.33
2023-01-11T01:14:53.774Z,-0.52
2023-01-11T01:19:52.956Z,-0.72
2023-01-11T01:24:55.235Z,-0.10
2023-01-11T01:29:52.351Z,0.48
2023-01-11T01:34:50.697Z,1.60
2023-01-11T01:39:52.102Z,-0.10
2023-01-11T01:44:49.051Z,2.13
2023-01-11T01:49:50.209Z,0.20
2023-01-11T01:54:47.401Z,0.20
2023-01-11T01:59:46.519Z,0.75
2023-01-11T02:04:47.881Z,0.75
2023-01-11T02:09:45.026Z,1.27
2023-01-11T02:14:44.197Z,-0.36
2023-01-11T02:19:43.305Z,1.27
2023-01-11T02:24:42.646Z,-0.11
2023-01-11T02:29:41.814Z,-0.11
2023-01-11T02:34:40.966Z,-0.65
2023-01-11T02:39:40.101Z,-0.11
2023-01-11T02:44:39.280Z,0.41
2023-01-11T02:49:40.416Z,-0.11
2023-01-11T02:54:37.578Z,0.41
2023-01-11T02:59:37.707Z,0.41
2023-01-11T03:04:35.866Z,0.41
2023-01-11T03:09:36.029Z,0.92
2023-01-11T03:14:35.296Z,0.92
2023-01-11T03:19:34.574Z,0.92
2023-01-11T03:24:33.795Z,1.41
2023-01-11T03:29:31.932Z,0.92
2023-01-11T03:34:31.084Z,0.92
2023-01-11T03:39:31.246Z,0.41
2023-01-11T03:44:28.483Z,0.41
2023-01-11T03:49:28.648Z,0.41
2023-01-11T03:54:27.779Z,0.06
2023-01-11T03:59:27.104Z,-0.44
2023-01-11T21:10:26.018Z,4.58
2023-01-11T21:15:27.287Z,4.46
2023-01-11T21:20:25.563Z,4.46
2023-01-11T21:25:24.851Z,4.46
2023-01-11T21:30:25.148Z,4.29
2023-01-11T21:35:22.431Z,4.58
2023-01-11T21:40:21.710Z,4.58
2023-01-11T21:45:22.075Z,4.58
2023-01-11T21:50:20.220Z,4.46
2023-01-11T21:55:19.340Z,3.76
2023-01-11T22:00:19.637Z,4.58
2023-01-11T22:05:17.968Z,4.58
2023-01-11T22:10:16.291Z,3.76
2023-01-11T22:15:16.491Z,3.76
2023-01-11T22:20:15.604Z,3.63
2023-01-11T22:25:14.890Z,3.46
2023-01-11T22:30:15.162Z,4.29
2023-01-11T22:35:12.433Z,4.58
2023-01-11T22:40:12.698Z,4.58
2023-01-11T22:45:12.985Z,3.63
2023-01-11T22:50:11.284Z,4.29
2023-01-11T22:55:11.576Z,3.63
2023-01-11T23:00:08.858Z,4.46
2023-01-11T23:05:10.153Z,3.76
2023-01-11T23:10:08.440Z,3.76
2023-01-11T23:15:08.723Z,3.76
2023-01-11T23:20:07.988Z,3.85
2023-01-11T23:25:07.299Z,3.85
2023-01-11T23:30:04.588Z,3.76
2023-01-11T23:35:04.868Z,3.63
2023-01-11T23:40:04.140Z,3.76
2023-01-11T23:45:04.387Z,3.85
2023-01-11T23:50:02.676Z,3.03
2023-01-11T23:55:01.937Z,3.85
